Time,TemperatureF,DewpointF,PressureIn,WindDirection,WindDirectionDegrees,WindSpeedMPH,WindSpeedGustMPH,Humidity,HourlyPrecipIn,Conditions,Clouds,dailyrainin,SoftwareType,DateUTC
2013-04-01 08:37:00,41.1,31.0,29.74,WNW,297,5.3,5.3,67,-99.99,,,-99.99,VWS V14.01,2013-04-01 12:37:00,
2013-04-01 08:42:00,41.1,29.7,29.75,West,264,7.4,15.9,64,-99.99,,,-99.99,VWS V14.01,2013-04-01 12:42:00,
2013-04-01 08:47:00,41.2,30.1,29.74,WNW,284,8.9,8.9,64,-99.99,,,-99.99,VWS V14.01,2013-04-01 12:47:00,
2013-04-01 08:52:00,41.1,30.2,29.75,WNW,288,7.0,13.8,65,-99.99,,,-99.99,VWS V14.01,2013-04-01 12:52:00,
2013-04-01 08:57:00,41.1,30.1,29.75,West,274,8.5,8.5,64,-99.99,,,-99.99,VWS V14.01,2013-04-01 12:57:00,
2013-04-01 09:02:00,41.0,29.5,29.75,NW,319,8.8,11.5,63,-99.99,,,-99.99,VWS V14.01,2013-04-01 13:02:00,
2013-04-01 09:07:00,41.1,30.1,29.75,SSE,152,1.6,13.2,65,-99.99,,,-99.99,VWS V14.01,2013-04-01 13:07:00,
2013-04-01 09:12:00,41.0,29.9,29.76,NW,322,7.8,13.0,64,-99.99,,,-99.99,VWS V14.01,2013-04-01 13:12:00,
2013-04-01 09:17:00,41.0,29.9,29.76,WNW,298,9.6,17.6,64,-99.99,,,-99.99,VWS V14.01,2013-04-01 13:17:00,
2013-04-01 09:22:00,41.0,29.9,29.76,NW,308,4.3,7.8,64,-99.99,,,-99.99,VWS V14.01,2013-04-01 13:22:00,
2013-04-01 09:27:00,40.8,29.2,29.76,NW,309,0.0,2.0,63,-99.99,,,-99.99,VWS V14.01,2013-04-01 13:27:00,
2013-04-01 09:32:00,40.8,28.8,29.77,West,280,8.6,8.7,62,-99.99,,,-99.99,VWS V14.01,2013-04-01 13:32:00,
2013-04-01 09:37:00,41.3,29.2,29.77,West,267,4.5,9.3,62,-99.99,,,-99.99,VWS V14.01,2013-04-01 13:37:00,
2013-04-01 09:42:00,40.9,28.8,29.77,NW,305,12.9,12.9,62,-99.99,,,-99.99,VWS V14.01,2013-04-01 13:42:00,
2013-04-01 09:47:00,40.9,29.6,29.78,NNW,339,0.0,6.3,64,-99.99,,,-99.99,VWS V14.01,2013-04-01 13:47:00,
2013-04-01 09:52:00,40.2,30.2,29.79,North,6,7.2,10.5,67,-99.99,,,-99.99,VWS V14.01,2013-04-01 13:52:00,
2013-04-01 09:57:00,39.8,31.1,29.79,WNW,291,7.6,10.6,71,-99.99,,,-99.99,VWS V14.01,2013-04-01 13:57:00,
2013-04-01 10:02:00,39.3,32.1,29.79,WNW,291,5.7,14.4,75,-99.99,,,-99.99,VWS V14.01,2013-04-01 14:02:00,
2013-04-01 10:07:00,38.8,33.0,29.80,NNE,28,0.0,8.0,79,-99.99,,,-99.99,VWS V14.01,2013-04-01 14:07:00,
2013-04-01 10:12:00,38.1,33.1,29.80,West,276,4.4,6.7,82,-99.99,,,-99.99,VWS V14.01,2013-04-01 14:12:00,
2013-04-01 10:17:00,37.5,33.4,29.80,West,271,6.2,7.8,85,-99.99,,,-99.99,VWS V14.01,2013-04-01 14:17:00,
2013-04-01 10:22:00,36.6,33.0,29.81,WSW,248,8.9,12.6,87,-99.99,,,-99.99,VWS V14.01,2013-04-01 14:22:00,
2013-04-01 10:27:00,36.1,32.9,29.82,NW,326,5.8,6.6,88,-99.99,,,-99.99,VWS V14.01,2013-04-01 14:27:00,
2013-04-01 10:32:00,35.6,33.0,29.82,WSW,250,7.5,11.2,90,-99.99,,,-99.99,VWS V14.01,2013-04-01 14:32:00,
2013-04-01 10:37:00,35.1,32.6,29.82,WSW,257,4.2,8.2,90,-99.99,,,-99.99,VWS V14.01,2013-04-01 14:37:00,
2013-04-01 10:42:00,35.0,32.7,29.82,NW,307,5.8,8.0,91,-99.99,,,-99.99,VWS V14.01,2013-04-01 14:42:00,
2013-04-01 10:47:00,35.0,32.5,29.82,WNW,301,1.2,5.5,90,-99.99,,,-99.99,VWS V14.01,2013-04-01 14:47:00,
2013-04-01 10:52:00,35.1,31.9,29.83,SW,221,5.7,8.4,88,-99.99,,,-99.99,VWS V14.01,2013-04-01 14:52:00,
2013-04-01 10:57:00,35.3,32.2,29.83,WSW,239,0.0,0.0,88,-99.99,,,-99.99,VWS V14.01,2013-04-01 14:57:00,
2013-04-01 11:02:00,35.6,32.2,29.83,WSW,245,7.6,7.6,87,-99.99,,,-99.99,VWS V14.01,2013-04-01 15:02:00,
2013-04-01 11:07:00,35.7,31.9,29.84,West,263,4.7,9.6,86,-99.99,,,-99.99,VWS V14.01,2013-04-01 15:07:00,
2013-04-01 11:12:00,35.9,31.8,29.84,SSW,194,0.0,4.8,85,-99.99,,,-99.99,VWS V14.01,2013-04-01 15:12:00,
2013-04-01 11:17:00,35.9,31.4,29.84,WSW,242,0.0,0.0,84,-99.99,,,-99.99,VWS V14.01,2013-04-01 15:17:00,
2013-04-01 11:22:00,35.9,31.8,29.84,NW,305,0.0,0.0,85,-99.99,,,-99.99,VWS V14.01,2013-04-01 15:22:00,
2013-04-01 11:27:00,35.8,32.2,29.84,North,0,2.7,7.0,87,-99.99,,,-99.99,VWS V14.01,2013-04-01 15:27:00,
2013-04-01 11:32:00,35.9,32.7,29.84,North,0,0.0,0.0,88,-99.99,,,-99.99,VWS V14.01,2013-04-01 15:32:00,
2013-04-01 11:37:00,35.8,32.7,29.84,North,359,7.2,7.6,88,-99.99,,,-99.99,VWS V14.01,2013-04-01 15:37:00,
2013-04-01 11:43:00,35.8,32.5,29.84,South,179,5.3,7.4,88,-99.99,,,-99.99,VWS V14.01,2013-04-01 15:43:00,
2013-04-01 11:48:00,35.9,32.7,29.84,SW,226,0.0,0.0,88,-99.99,,,-99.99,VWS V14.01,2013-04-01 15:48:00,
2013-04-01 11:53:00,36.0,32.6,29.84,West,260,0.0,6.2,87,-99.99,,,-99.99,VWS V14.01,2013-04-01 15:53:00,
2013-04-01 11:57:00,36.1,32.8,29.84,North,359,0.0,0.0,88,-99.99,,,-99.99,VWS V14.01,2013-04-01 15:57:00,
2013-04-01 12:02:00,36.2,33.0,29.84,NNW,336,0.0,0.0,88,-99.99,,,-99.99,VWS V14.01,2013-04-01 16:02:00,
2013-04-01 12:07:00,36.3,33.1,29.84,NNW,336,0.0,0.0,88,-99.99,,,-99.99,VWS V14.01,2013-04-01 16:07:00,
2013-04-01 12:12:00,36.1,32.6,29.84,NNW,338,7.0,7.2,87,-99.99,,,-99.99,VWS V14.01,2013-04-01 16:12:00,
2013-04-01 12:17:00,36.1,32.8,29.85,NNW,328,0.0,4.4,88,-99.99,,,-99.99,VWS V14.01,2013-04-01 16:17:00,
2013-04-01 12:22:00,35.9,32.8,29.86,NW,307,5.8,9.4,88,-99.99,,,-99.99,VWS V14.01,2013-04-01 16:22:00,
2013-04-01 12:28:00,34.8,31.5,29.86,WNW,297,3.3,6.3,88,-99.99,,,-99.99,VWS V14.01,2013-04-01 16:28:00,
2013-04-01 12:33:00,33.6,31.0,29.87,NW,323,6.3,6.3,90,-99.99,,,-99.99,VWS V14.01,2013-04-01 16:33:00,
2013-04-01 12:38:00,33.3,31.1,29.87,NW,311,0.0,0.0,91,-99.99,,,-99.99,VWS V14.01,2013-04-01 16:38:00,
2013-04-01 12:43:00,33.0,30.8,29.87,NW,305,0.0,6.5,92,-99.99,,,-99.99,VWS V14.01,2013-04-01 16:43:00,
2013-04-01 12:48:00,32.9,30.9,29.87,NW,325,0.0,4.8,92,-99.99,,,-99.99,VWS V14.01,2013-04-01 16:48:00,
2013-04-01 12:53:00,32.7,30.8,29.88,NW,315,0.0,6.5,92,-99.99,,,-99.99,VWS V14.01,2013-04-01 16:53:00,
2013-04-01 12:58:00,32.0,30.1,29.88,WNW,283,6.8,8.6,92,-99.99,,,-99.99,VWS V14.01,2013-04-01 16:58:00,
2013-04-01 13:03:00,32.0,30.3,29.88,NW,308,8.2,8.6,93,-99.99,,,-99.99,VWS V14.01,2013-04-01 17:03:00,
2013-04-01 13:08:00,31.8,29.8,29.88,WNW,291,7.7,9.0,92,-99.99,,,-99.99,VWS V14.01,2013-04-01 17:08:00,
2013-04-01 13:13:00,31.9,29.6,29.88,West,273,5.8,5.8,91,-99.99,,,-99.99,VWS V14.01,2013-04-01 17:13:00,
2013-04-01 13:18:00,31.8,29.3,29.88,NW,321,7.7,10.1,90,-99.99,,,-99.99,VWS V14.01,2013-04-01 17:18:00,
2013-04-01 13:23:00,32.0,29.4,29.88,West,266,0.0,2.5,90,-99.99,,,-99.99,VWS V14.01,2013-04-01 17:23:00,
2013-04-01 13:28:00,32.3,29.9,29.88,SW,229,4.3,4.3,91,-99.99,,,-99.99,VWS V14.01,2013-04-01 17:28:00,
2013-04-01 13:33:00,32.4,29.3,29.89,NW,304,0.0,9.1,88,-99.99,,,-99.99,VWS V14.01,2013-04-01 17:33:00,
2013-04-01 13:38:00,32.6,28.9,29.89,NW,305,0.0,7.7,86,-99.99,,,-99.99,VWS V14.01,2013-04-01 17:38:00,
2013-04-01 13:43:00,32.7,29.1,29.88,West,264,0.0,0.0,86,-99.99,,,-99.99,VWS V14.01,2013-04-01 17:43:00,
2013-04-01 13:48:00,33.1,29.7,29.88,NNW,328,6.2,6.6,87,-99.99,,,-99.99,VWS V14.01,2013-04-01 17:48:00,
2013-04-01 13:53:00,33.4,29.5,29.88,WNW,290,3.4,3.4,85,-99.99,,,-99.99,VWS V14.01,2013-04-01 17:53:00,
2013-04-01 13:58:00,33.7,29.9,29.88,WSW,246,0.0,0.0,86,-99.99,,,-99.99,VWS V14.01,2013-04-01 17:58:00,
2013-04-01 14:02:00,33.8,29.3,29.88,West,280,0.0,0.0,83,-99.99,,,-99.99,VWS V14.01,2013-04-01 18:02:00,
2013-04-01 14:07:00,34.0,29.6,29.89,West,280,0.0,0.0,84,-99.99,,,-99.99,VWS V14.01,2013-04-01 18:07:00,
2013-04-01 14:12:00,34.1,29.7,29.88,ENE,72,0.0,0.0,84,-99.99,,,-99.99,VWS V14.01,2013-04-01 18:12:00,
2013-04-01 14:17:00,34.4,29.7,29.88,ENE,72,0.0,0.0,83,-99.99,,,-99.99,VWS V14.01,2013-04-01 18:17:00,
2013-04-01 14:22:00,35.4,31.7,29.88,ENE,72,0.0,0.0,86,-99.99,,,-99.99,VWS V14.01,2013-04-01 18:22:00,
2013-04-01 14:27:00,36.4,31.0,29.87,WNW,285,3.1,7.5,80,-99.99,,,-99.99,VWS V14.01,2013-04-01 18:27:00,
2013-04-01 14:32:00,36.8,28.1,29.87,WNW,292,5.2,7.5,70,-99.99,,,-99.99,VWS V14.01,2013-04-01 18:32:00,
2013-04-01 14:37:00,37.1,27.0,29.87,WNW,285,4.3,6.8,66,-99.99,,,-99.99,VWS V14.01,2013-04-01 18:37:00,
2013-04-01 14:42:00,37.2,26.8,29.87,NNW,345,13.1,13.7,66,-99.99,,,-99.99,VWS V14.01,2013-04-01 18:42:00,
2013-04-01 14:48:00,37.4,26.0,29.87,NW,309,5.2,8.7,63,-99.99,,,-99.99,VWS V14.01,2013-04-01 18:48:00,
2013-04-01 14:53:00,37.7,25.0,29.87,WSW,255,4.1,5.4,60,-99.99,,,-99.99,VWS V14.01,2013-04-01 18:53:00,
2013-04-01 14:58:00,38.3,27.0,29.87,NNW,336,4.6,7.0,63,-99.99,,,-99.99,VWS V14.01,2013-04-01 18:58:00,
2013-04-01 15:03:00,38.8,26.1,29.87,West,269,6.1,8.3,60,-99.99,,,-99.99,VWS V14.01,2013-04-01 19:03:00,
2013-04-01 15:08:00,38.9,26.3,29.87,West,280,3.5,8.0,60,-99.99,,,-99.99,VWS V14.01,2013-04-01 19:08:00,
2013-04-01 15:13:00,38.6,25.2,29.87,NW,323,5.0,9.4,58,-99.99,,,-99.99,VWS V14.01,2013-04-01 19:13:00,
2013-04-01 15:18:00,38.8,26.0,29.87,WNW,298,8.5,11.1,60,-99.99,,,-99.99,VWS V14.01,2013-04-01 19:18:00,
2013-04-01 15:23:00,38.8,24.7,29.87,WNW,301,7.1,11.6,57,-99.99,,,-99.99,VWS V14.01,2013-04-01 19:23:00,
2013-04-01 15:28:00,39.0,24.1,29.88,WNW,297,4.9,4.9,55,-99.99,,,-99.99,VWS V14.01,2013-04-01 19:28:00,
2013-04-01 15:33:00,39.1,22.6,29.88,SSW,210,4.8,13.7,51,-99.99,,,-99.99,VWS V14.01,2013-04-01 19:33:00,
2013-04-01 15:38:00,39.4,24.0,29.88,WNW,287,0.0,6.0,54,-99.99,,,-99.99,VWS V14.01,2013-04-01 19:38:00,
2013-04-01 15:43:00,40.0,23.1,29.88,WNW,301,7.9,19.9,50,-99.99,,,-99.99,VWS V14.01,2013-04-01 19:43:00,
2013-04-01 15:48:00,40.1,22.2,29.88,WNW,283,7.2,9.6,48,-99.99,,,-99.99,VWS V14.01,2013-04-01 19:48:00,
2013-04-01 15:53:00,40.3,22.4,29.88,West,278,5.2,10.7,48,-99.99,,,-99.99,VWS V14.01,2013-04-01 19:53:00,
2013-04-01 15:58:00,40.5,21.2,29.88,WNW,284,6.8,14.5,46,-99.99,,,-99.99,VWS V14.01,2013-04-01 19:58:00,
2013-04-01 16:03:00,40.6,21.8,29.88,West,259,4.2,8.5,47,-99.99,,,-99.99,VWS V14.01,2013-04-01 20:03:00,
2013-04-01 16:08:00,40.8,21.2,29.88,NNW,330,5.1,9.8,45,-99.99,,,-99.99,VWS V14.01,2013-04-01 20:08:00,
2013-04-01 16:13:00,40.9,21.3,29.89,WSW,240,5.3,10.7,45,-99.99,,,-99.99,VWS V14.01,2013-04-01 20:13:00,
2013-04-01 16:18:00,40.4,20.1,29.89,NW,304,5.2,16.6,44,-99.99,,,-99.99,VWS V14.01,2013-04-01 20:18:00,
2013-04-01 16:23:00,40.5,19.5,29.89,West,276,6.2,10.4,42,-99.99,,,-99.99,VWS V14.01,2013-04-01 20:23:00,
2013-04-01 16:28:00,40.6,19.1,29.89,WNW,288,5.4,14.9,42,-99.99,,,-99.99,VWS V14.01,2013-04-01 20:28:00,
2013-04-01 16:33:00,40.7,18.4,29.89,North,359,0.0,13.7,40,-99.99,,,-99.99,VWS V14.01,2013-04-01 20:33:00,
2013-04-01 16:38:00,40.7,18.9,29.89,NW,316,10.6,10.6,41,-99.99,,,-99.99,VWS V14.01,2013-04-01 20:38:00,
2013-04-01 16:43:00,40.8,17.8,29.89,NW,316,9.8,15.6,39,-99.99,,,-99.99,VWS V14.01,2013-04-01 20:43:00,
2013-04-01 16:48:00,41.1,18.3,29.89,NNW,346,0.0,5.0,39,-99.99,,,-99.99,VWS V14.01,2013-04-01 20:48:00,
2013-04-01 16:53:00,41.0,19.6,29.89,North,349,6.2,11.0,42,-99.99,,,-99.99,VWS V14.01,2013-04-01 20:53:00,
2013-04-01 16:58:00,40.7,19.1,29.89,NW,322,5.2,15.7,42,-99.99,,,-99.99,VWS V14.01,2013-04-01 20:58:00,
2013-04-01 17:03:00,40.5,17.9,29.89,WSW,246,0.0,10.7,40,-99.99,,,-99.99,VWS V14.01,2013-04-01 21:03:00,
2013-04-01 17:08:00,40.4,17.9,29.89,WNW,287,5.8,9.4,40,-99.99,,,-99.99,VWS V14.01,2013-04-01 21:08:00,
2013-04-01 17:13:00,39.8,18.4,29.89,NW,318,0.0,14.5,42,-99.99,,,-99.99,VWS V14.01,2013-04-01 21:13:00,
2013-04-01 17:18:00,39.4,18.1,29.89,WNW,301,11.9,11.9,42,-99.99,,,-99.99,VWS V14.01,2013-04-01 21:18:00,
2013-04-01 17:23:00,39.7,19.0,29.89,NW,323,5.3,10.9,43,-99.99,,,-99.99,VWS V14.01,2013-04-01 21:23:00,
2013-04-01 17:28:00,40.1,19.3,29.90,NW,325,5.8,7.5,43,-99.99,,,-99.99,VWS V14.01,2013-04-01 21:28:00,
2013-04-01 17:33:00,40.5,18.5,29.90,SW,224,4.5,8.9,41,-99.99,,,-99.99,VWS V14.01,2013-04-01 21:33:00,
2013-04-01 17:38:00,40.7,18.6,29.90,NW,315,5.7,6.3,40,-99.99,,,-99.99,VWS V14.01,2013-04-01 21:38:00,
2013-04-01 17:43:00,40.1,17.6,29.90,WSW,252,0.0,11.2,40,-99.99,,,-99.99,VWS V14.01,2013-04-01 21:43:00,
2013-04-01 17:48:00,39.7,16.5,29.90,WNW,291,9.6,12.4,38,-99.99,,,-99.99,VWS V14.01,2013-04-01 21:48:00,
2013-04-01 17:53:00,39.5,16.3,29.91,West,280,11.1,18.1,38,-99.99,,,-99.99,VWS V14.01,2013-04-01 21:53:00,
2013-04-01 17:58:00,39.6,16.9,29.91,West,281,6.0,14.7,39,-99.99,,,-99.99,VWS V14.01,2013-04-01 21:58:00,
2013-04-01 18:03:00,39.2,16.1,29.91,WNW,287,0.0,7.0,39,-99.99,,,-99.99,VWS V14.01,2013-04-01 22:03:00,
2013-04-01 18:08:00,38.7,16.6,29.91,NW,308,2.9,8.6,40,-99.99,,,-99.99,VWS V14.01,2013-04-01 22:08:00,
2013-04-01 18:13:00,38.4,16.7,29.91,WSW,239,6.3,9.3,41,-99.99,,,-99.99,VWS V14.01,2013-04-01 22:13:00,
2013-04-01 18:18:00,38.0,15.8,29.91,NW,314,8.1,8.5,40,-99.99,,,-99.99,VWS V14.01,2013-04-01 22:18:00,
2013-04-01 18:23:00,38.0,16.1,29.92,NW,318,4.6,9.0,40,-99.99,,,-99.99,VWS V14.01,2013-04-01 22:23:00,
2013-04-01 18:28:00,37.7,15.8,29.92,NW,323,6.3,8.7,40,-99.99,,,-99.99,VWS V14.01,2013-04-01 22:28:00,
2013-04-01 18:33:00,37.7,15.5,29.92,SW,236,5.3,11.1,40,-99.99,,,-99.99,VWS V14.01,2013-04-01 22:33:00,
2013-04-01 18:38:00,37.8,15.8,29.92,NNW,333,6.6,9.9,40,-99.99,,,-99.99,VWS V14.01,2013-04-01 22:38:00,
2013-04-01 18:43:00,37.8,15.8,29.92,NNW,330,0.0,7.8,40,-99.99,,,-99.99,VWS V14.01,2013-04-01 22:43:00,
2013-04-01 18:48:00,37.4,15.5,29.92,West,273,0.0,11.1,40,-99.99,,,-99.99,VWS V14.01,2013-04-01 22:48:00,
2013-04-01 18:53:00,37.2,16.0,29.92,WNW,285,0.0,7.7,42,-99.99,,,-99.99,VWS V14.01,2013-04-01 22:53:00,
2013-04-01 18:58:00,36.8,15.1,29.92,West,273,5.5,11.2,41,-99.99,,,-99.99,VWS V14.01,2013-04-01 22:58:00,
2013-04-01 19:03:00,36.8,17.0,29.93,WNW,284,4.2,10.0,44,-99.99,,,-99.99,VWS V14.01,2013-04-01 23:03:00,
2013-04-01 19:08:00,36.5,15.6,29.93,WNW,284,0.0,9.3,42,-99.99,,,-99.99,VWS V14.01,2013-04-01 23:08:00,
2013-04-01 19:13:00,36.6,16.1,29.93,West,267,3.5,4.8,43,-99.99,,,-99.99,VWS V14.01,2013-04-01 23:13:00,
2013-04-01 19:18:00,36.5,16.8,29.93,NW,304,0.0,0.0,44,-99.99,,,-99.99,VWS V14.01,2013-04-01 23:18:00,
2013-04-01 19:23:00,36.2,15.6,29.93,NW,319,3.0,6.9,42,-99.99,,,-99.99,VWS V14.01,2013-04-01 23:23:00,
2013-04-01 19:28:00,36.1,15.3,29.93,West,263,0.0,8.5,42,-99.99,,,-99.99,VWS V14.01,2013-04-01 23:28:00,
2013-04-01 19:33:00,36.0,15.6,29.93,West,259,4.8,7.0,43,-99.99,,,-99.99,VWS V14.01,2013-04-01 23:33:00,
2013-04-01 19:38:00,35.9,15.9,29.94,West,270,4.7,8.0,44,-99.99,,,-99.99,VWS V14.01,2013-04-01 23:38:00,
2013-04-01 19:43:00,35.7,14.9,29.93,NW,307,4.3,9.9,42,-99.99,,,-99.99,VWS V14.01,2013-04-01 23:43:00,
2013-04-01 19:48:00,35.6,14.9,29.94,West,267,4.6,9.3,42,-99.99,,,-99.99,VWS V14.01,2013-04-01 23:48:00,
2013-04-01 19:53:00,35.5,14.5,29.94,SW,215,5.0,12.1,42,-99.99,,,-99.99,VWS V14.01,2013-04-01 23:53:00,
2013-04-01 19:58:00,35.4,14.5,29.94,NW,316,5.2,6.3,42,-99.99,,,-99.99,VWS V14.01,2013-04-01 23:58:00,
2013-04-01 20:03:00,35.2,13.9,29.94,North,11,6.0,13.4,41,-99.99,,,-99.99,VWS V14.01,2013-04-02 00:03:00,
2013-04-01 20:08:00,35.0,13.5,29.94,WNW,291,0.0,8.6,41,-99.99,,,-99.99,VWS V14.01,2013-04-02 00:08:00,
2013-04-01 20:13:00,35.1,14.2,29.95,SW,231,4.3,6.6,42,-99.99,,,-99.99,VWS V14.01,2013-04-02 00:13:00,
2013-04-01 20:18:00,34.9,14.3,29.95,NW,315,6.1,6.9,42,-99.99,,,-99.99,VWS V14.01,2013-04-02 00:18:00,
2013-04-01 20:23:00,34.9,14.2,29.95,NNW,329,0.0,0.0,42,-99.99,,,-99.99,VWS V14.01,2013-04-02 00:23:00,
2013-04-01 20:28:00,34.8,14.3,29.95,NNW,333,0.0,7.8,42,-99.99,,,-99.99,VWS V14.01,2013-04-02 00:28:00,
2013-04-01 20:33:00,34.6,13.7,29.95,West,270,8.1,10.4,42,-99.99,,,-99.99,VWS V14.01,2013-04-02 00:33:00,
2013-04-01 20:38:00,34.5,13.9,29.95,SW,217,4.8,9.2,42,-99.99,,,-99.99,VWS V14.01,2013-04-02 00:38:00,
2013-04-01 20:43:00,34.5,13.7,29.95,West,273,0.0,0.0,42,-99.99,,,-99.99,VWS V14.01,2013-04-02 00:43:00,
2013-04-01 20:48:00,34.4,13.9,29.95,NW,312,0.0,0.0,42,-99.99,,,-99.99,VWS V14.01,2013-04-02 00:48:00,
2013-04-01 20:53:00,34.3,13.5,29.96,WNW,292,0.0,0.0,42,-99.99,,,-99.99,VWS V14.01,2013-04-02 00:53:00,
2013-04-01 20:58:00,34.1,13.3,29.96,NW,319,5.0,7.1,42,-99.99,,,-99.99,VWS V14.01,2013-04-02 00:58:00,
2013-04-01 21:03:00,34.1,13.3,29.96,NW,307,3.3,3.3,42,-99.99,,,-99.99,VWS V14.01,2013-04-02 01:03:00,
2013-04-01 21:08:00,34.0,13.6,29.96,WNW,290,0.0,0.0,42,-99.99,,,-99.99,VWS V14.01,2013-04-02 01:08:00,
2013-04-01 21:13:00,34.0,13.9,29.96,West,269,0.0,3.2,43,-99.99,,,-99.99,VWS V14.01,2013-04-02 01:13:00,
2013-04-01 21:18:00,34.0,14.1,29.96,WNW,301,0.0,0.0,43,-99.99,,,-99.99,VWS V14.01,2013-04-02 01:18:00,
2013-04-01 21:23:00,33.9,14.6,29.96,WNW,301,0.0,0.0,44,-99.99,,,-99.99,VWS V14.01,2013-04-02 01:23:00,
2013-04-01 21:28:00,33.7,14.5,29.96,WNW,294,3.5,5.5,45,-99.99,,,-99.99,VWS V14.01,2013-04-02 01:28:00,
2013-04-01 21:33:00,33.5,14.6,29.96,NW,318,6.0,6.7,45,-99.99,,,-99.99,VWS V14.01,2013-04-02 01:33:00,
2013-04-01 21:38:00,33.2,14.1,29.96,West,259,8.7,9.4,45,-99.99,,,-99.99,VWS V14.01,2013-04-02 01:38:00,
2013-04-01 21:43:00,33.1,14.4,29.96,WNW,292,0.0,0.0,46,-99.99,,,-99.99,VWS V14.01,2013-04-02 01:43:00,
2013-04-01 21:48:00,33.0,14.1,29.97,WNW,302,5.8,5.8,45,-99.99,,,-99.99,VWS V14.01,2013-04-02 01:48:00,
2013-04-01 21:53:00,32.9,14.2,29.97,NNW,343,5.0,5.0,46,-99.99,,,-99.99,VWS V14.01,2013-04-02 01:53:00,
2013-04-01 21:58:00,32.8,14.1,29.97,NNW,330,0.0,0.0,46,-99.99,,,-99.99,VWS V14.01,2013-04-02 01:58:00,
2013-04-01 22:03:00,32.7,14.4,29.97,NW,319,3.1,5.7,46,-99.99,,,-99.99,VWS V14.01,2013-04-02 02:03:00,
2013-04-01 22:08:00,32.6,14.2,29.97,West,281,0.0,0.0,46,-99.99,,,-99.99,VWS V14.01,2013-04-02 02:08:00,
2013-04-01 22:13:00,32.4,14.3,29.97,NW,322,0.0,0.0,47,-99.99,,,-99.99,VWS V14.01,2013-04-02 02:13:00,
2013-04-01 22:18:00,32.1,13.8,29.98,West,278,6.3,6.6,46,-99.99,,,-99.99,VWS V14.01,2013-04-02 02:18:00,
2013-04-01 22:23:00,32.2,14.5,29.97,WNW,297,0.0,0.0,48,-99.99,,,-99.99,VWS V14.01,2013-04-02 02:23:00,
2013-04-01 22:28:00,32.0,14.3,29.98,WSW,250,0.0,5.7,47,-99.99,,,-99.99,VWS V14.01,2013-04-02 02:28:00,
2013-04-01 22:33:00,31.9,14.0,29.97,WNW,290,0.0,0.0,47,-99.99,,,-99.99,VWS V14.01,2013-04-02 02:33:00,
2013-04-01 22:38:00,31.9,13.8,29.97,NW,316,0.0,0.0,47,-99.99,,,-99.99,VWS V14.01,2013-04-02 02:38:00,
2013-04-01 22:43:00,31.7,13.6,29.97,NNW,345,0.0,2.7,46,-99.99,,,-99.99,VWS V14.01,2013-04-02 02:43:00,
2013-04-01 22:48:00,31.8,13.5,29.97,NNW,345,0.0,0.0,46,-99.99,,,-99.99,VWS V14.01,2013-04-02 02:48:00,
2013-04-01 22:53:00,31.7,13.8,29.97,WSW,239,0.0,0.0,47,-99.99,,,-99.99,VWS V14.01,2013-04-02 02:53:00,
2013-04-01 22:58:00,31.7,13.7,29.97,WSW,239,0.0,0.0,47,-99.99,,,-99.99,VWS V14.01,2013-04-02 02:58:00,
2013-04-01 23:03:00,31.7,13.6,29.97,NNW,332,0.0,0.0,47,-99.99,,,-99.99,VWS V14.01,2013-04-02 03:03:00,
2013-04-01 23:08:00,31.6,13.9,29.98,NNW,332,0.0,0.0,47,-99.99,,,-99.99,VWS V14.01,2013-04-02 03:08:00,
2013-04-01 23:13:00,31.6,13.9,29.98,NNW,332,0.0,0.0,48,-99.99,,,-99.99,VWS V14.01,2013-04-02 03:13:00,
2013-04-01 23:18:00,31.7,13.9,29.98,NNW,332,0.0,0.0,47,-99.99,,,-99.99,VWS V14.01,2013-04-02 03:18:00,
2013-04-01 23:23:00,31.7,14.7,29.97,NNW,332,0.0,0.0,49,-99.99,,,-99.99,VWS V14.01,2013-04-02 03:23:00,
2013-04-01 23:28:00,31.6,15.1,29.97,NNW,332,0.0,0.0,50,-99.99,,,-99.99,VWS V14.01,2013-04-02 03:28:00,
2013-04-01 23:33:00,31.4,15.0,29.97,NNW,332,0.0,0.0,50,-99.99,,,-99.99,VWS V14.01,2013-04-02 03:33:00,
2013-04-01 23:38:00,31.2,14.8,29.97,NNW,332,0.0,0.0,50,-99.99,,,-99.99,VWS V14.01,2013-04-02 03:38:00,
2013-04-01 23:43:00,31.1,14.5,29.97,NNW,332,0.0,0.0,50,-99.99,,,-99.99,VWS V14.01,2013-04-02 03:43:00,
2013-04-01 23:48:00,31.2,14.9,29.98,NNW,332,0.0,0.0,50,-99.99,,,-99.99,VWS V14.01,2013-04-02 03:48:00,
2013-04-01 23:53:00,31.1,14.6,29.97,NNW,332,0.0,0.0,50,-99.99,,,-99.99,VWS V14.01,2013-04-02 03:53:00,
2013-04-01 23:58:00,31.1,14.3,29.97,NNW,332,0.0,0.0,49,-99.99,,,-99.99,VWS V14.01,2013-04-02 03:58:00,